Terminal Aerodrome Forecast
Issued by NWS

Home | Current Version | Previous Version | Text Only | Print | Product List | Glossary Off
Versions: 1 2 3 4 5 6 7 8 9 10 11 12 13 14 15 16 17 18 19 20 21

000
FTUS43 KMPX 241000 AAC
TAFAXN
TAF AMD
KAXN 241019Z 2410/2506 16010KT P6SM VCSH SCT015 BKN040
     FM241400 15011KT P6SM SCT020 BKN150
     FM241700 20015G23KT P6SM SCT150
     FM250100 24008KT P6SM FEW200=

USA.gov is the U.S. government's official web portal to all federal, state and local government web resources and services.